Time;durP1;ratioP1;P1;durP2;ratioP2;P2;SDS_P1;SDS_P2;PMS_P1;PMS_P2;Temp;Humidity;BMP_temperature;BMP_pressure;BME280_temperature;BME280_humidity;BME280_pressure;Samples;Min_cycle;Max_cycle;Signal;HPM_P1;HPM_P2
2021/06/19 00:02:21;;;;;;;4.30;4.00;;;;;;;;;;5072932;28;20204;-86
2021/06/19 00:04:49;;;;;;;4.10;3.72;;;;;;;;;;5073182;28;20208;-86
2021/06/19 00:07:16;;;;;;;3.40;3.20;;;;;;;;;;5071591;28;20233;-86
2021/06/19 00:09:45;;;;;;;4.43;4.03;;;;;;;;;;5071415;28;20730;-86
2021/06/19 00:12:15;;;;;;;3.78;3.47;;;;;;;;;;5072064;28;20197;-86
2021/06/19 00:14:42;;;;;;;3.95;3.65;;;;;;;;;;5072005;28;20734;-86
2021/06/19 00:17:11;;;;;;;3.58;3.38;;;;;;;;;;5072353;28;20204;-86
2021/06/19 00:19:39;;;;;;;3.70;3.40;;;;;;;;;;5071718;28;20585;-87
2021/06/19 00:22:07;;;;;;;3.75;3.50;;;;;;;;;;5071555;28;20205;-86
2021/06/19 00:24:38;;;;;;;3.90;3.60;;;;;;;;;;5071221;28;20243;-86
2021/06/19 00:27:08;;;;;;;3.53;3.22;;;;;;;;;;5076582;28;20201;-86
2021/06/19 00:29:36;;;;;;;2.95;2.75;;;;;;;;;;5080888;28;20225;-86
2021/06/19 00:32:04;;;;;;;3.40;3.10;;;;;;;;;;5073451;28;20311;-88
2021/06/19 00:34:32;;;;;;;4.13;3.83;;;;;;;;;;5070819;28;20694;-87
2021/06/19 00:36:59;;;;;;;3.80;3.50;;;;;;;;;;5071315;28;20200;-88
2021/06/19 00:39:28;;;;;;;4.18;3.78;;;;;;;;;;5070532;28;20240;-88
2021/06/19 00:41:55;;;;;;;3.88;3.45;;;;;;;;;;5071035;28;20231;-87
2021/06/19 00:44:24;;;;;;;3.65;3.28;;;;;;;;;;5070775;28;20204;-87
2021/06/19 00:46:52;;;;;;;3.28;3.08;;;;;;;;;;5070778;28;20201;-88
2021/06/19 00:49:20;;;;;;;3.72;3.42;;;;;;;;;;5070741;28;20404;-87
2021/06/19 00:51:48;;;;;;;4.38;3.17;;;;;;;;;;5070512;28;20710;-87
2021/06/19 00:54:16;;;;;;;3.17;2.97;;;;;;;;;;5070927;28;20255;-88
2021/06/19 00:56:44;;;;;;;3.35;2.92;;;;;;;;;;5070497;28;20644;-87
2021/06/19 00:59:11;;;;;;;2.50;2.30;;;;;;;;;;5069989;28;20224;-88
2021/06/19 01:01:40;;;;;;;2.97;2.78;;;;;;;;;;5070193;28;20204;-88
2021/06/19 01:04:08;;;;;;;2.65;2.45;;;;;;;;;;5070360;28;20573;-88
2021/06/19 01:06:36;;;;;;;3.92;3.63;;;;;;;;;;5070633;28;20190;-88
2021/06/19 01:09:08;;;;;;;3.38;3.17;;;;;;;;;;5070124;28;20233;-88
2021/06/19 01:11:37;;;;;;;3.58;2.75;;;;;;;;;;5070083;28;20739;-87
2021/06/19 01:14:05;;;;;;;3.20;3.00;;;;;;;;;;5070357;28;20208;-88
2021/06/19 01:16:34;;;;;;;3.33;3.13;;;;;;;;;;5070271;28;20196;-88
2021/06/19 01:19:03;;;;;;;3.92;3.63;;;;;;;;;;5070254;28;20221;-87
2021/06/19 01:21:32;;;;;;;4.25;3.95;;;;;;;;;;5070421;28;20285;-87
2021/06/19 01:24:01;;;;;;;4.40;4.10;;;;;;;;;;5069721;28;20328;-87
2021/06/19 01:26:32;;;;;;;4.10;3.80;;;;;;;;;;5069689;28;20205;-87
2021/06/19 01:29:00;;;;;;;4.40;3.28;;;;;;;;;;5069706;28;20721;-87
2021/06/19 01:31:28;;;;;;;3.03;2.83;;;;;;;;;;5070049;28;20193;-87
2021/06/19 01:33:55;;;;;;;3.50;3.20;;;;;;;;;;5069766;28;20208;-87
2021/06/19 01:36:24;;;;;;;2.65;2.45;;;;;;;;;;5069925;28;20238;-87
2021/06/19 01:38:54;;;;;;;2.95;2.75;;;;;;;;;;5069920;28;20228;-87
2021/06/19 01:41:25;;;;;;;2.95;2.75;;;;;;;;;;5069764;28;20297;-88
2021/06/19 01:44:01;;;;;;;4.22;3.92;;;;;;;;;;5070069;28;20231;-88
2021/06/19 01:46:29;;;;;;;4.07;3.78;;;;;;;;;;5069735;28;20185;-87
2021/06/19 01:48:57;;;;;;;3.80;3.50;;;;;;;;;;5069431;28;20225;-87
2021/06/19 01:51:24;;;;;;;3.67;3.38;;;;;;;;;;5069486;28;20197;-87
2021/06/19 01:53:53;;;;;;;4.90;4.50;;;;;;;;;;5069751;28;20197;-88
2021/06/19 01:56:21;;;;;;;4.90;4.50;;;;;;;;;;5069938;28;20193;-87
2021/06/19 01:58:49;;;;;;;3.38;3.10;;;;;;;;;;5069698;28;20702;-87
2021/06/19 02:01:21;;;;;;;3.85;3.58;;;;;;;;;;5070464;28;20447;-88
2021/06/19 02:04:23;;;;;;;3.83;3.53;;;;;;;;;;5072375;28;20201;-87
2021/06/19 02:06:50;;;;;;;3.75;3.40;;;;;;;;;;5071984;28;20688;-88
2021/06/19 02:09:18;;;;;;;3.80;3.50;;;;;;;;;;5071780;28;20228;-88
2021/06/19 02:11:46;;;;;;;3.60;3.33;;;;;;;;;;5071481;28;20201;-87
2021/06/19 02:14:15;;;;;;;4.43;4.13;;;;;;;;;;5071733;28;20208;-87
2021/06/19 02:16:45;;;;;;;4.90;4.40;;;;;;;;;;5072236;28;20193;-88
2021/06/19 02:19:13;;;;;;;4.55;4.15;;;;;;;;;;5072094;28;20315;-86
2021/06/19 02:21:41;;;;;;;4.90;4.50;;;;;;;;;;5072038;28;20197;-87
2021/06/19 02:24:09;;;;;;;4.95;4.55;;;;;;;;;;5071967;28;20205;-87
2021/06/19 02:26:37;;;;;;;4.88;4.50;;;;;;;;;;5071366;28;20196;-87
2021/06/19 02:29:04;;;;;;;4.85;4.53;;;;;;;;;;5071990;28;20225;-87
2021/06/19 02:31:31;;;;;;;4.57;4.28;;;;;;;;;;5071948;28;20574;-87
2021/06/19 02:34:00;;;;;;;4.68;4.18;;;;;;;;;;5071700;28;20574;-87
2021/06/19 02:36:28;;;;;;;4.13;3.83;;;;;;;;;;5071682;28;20623;-88
2021/06/19 02:38:55;;;;;;;3.95;3.65;;;;;;;;;;5071162;28;20378;-87
2021/06/19 02:41:23;;;;;;;3.92;3.47;;;;;;;;;;5071549;28;20212;-87
2021/06/19 02:43:50;;;;;;;3.45;3.25;;;;;;;;;;5071848;28;20279;-87
2021/06/19 02:46:18;;;;;;;3.80;3.50;;;;;;;;;;5071612;28;20193;-87
2021/06/19 02:48:45;;;;;;;3.83;3.53;;;;;;;;;;5071524;28;20236;-88
2021/06/19 02:51:14;;;;;;;3.10;2.90;;;;;;;;;;5071602;28;20219;-87
2021/06/19 02:53:41;;;;;;;3.67;3.38;;;;;;;;;;5072022;28;20287;-88
2021/06/19 02:56:08;;;;;;;3.97;3.67;;;;;;;;;;5071692;28;20212;-87
2021/06/19 02:58:36;;;;;;;4.22;3.83;;;;;;;;;;5070939;28;20224;-87
2021/06/19 03:01:07;;;;;;;3.50;3.30;;;;;;;;;;5070379;28;20205;-87
2021/06/19 03:03:35;;;;;;;4.03;3.28;;;;;;;;;;5068962;28;20204;-88
2021/06/19 03:06:02;;;;;;;3.65;3.45;;;;;;;;;;5069510;28;20190;-87
2021/06/19 03:08:31;;;;;;;3.97;3.67;;;;;;;;;;5069368;28;20322;-86
2021/06/19 03:10:59;;;;;;;4.55;4.20;;;;;;;;;;5068969;28;20201;-87
2021/06/19 03:13:26;;;;;;;4.43;3.55;;;;;;;;;;5069382;28;20201;-87
2021/06/19 03:15:54;;;;;;;4.03;3.72;;;;;;;;;;5068689;28;20200;-87
2021/06/19 03:18:21;;;;;;;4.10;3.80;;;;;;;;;;5068733;28;20209;-87
2021/06/19 03:20:49;;;;;;;3.50;3.20;;;;;;;;;;5068616;28;20205;-88
2021/06/19 03:23:17;;;;;;;3.78;3.47;;;;;;;;;;5075481;28;20192;-87
2021/06/19 03:25:46;;;;;;;3.67;3.40;;;;;;;;;;5075104;28;20186;-88
2021/06/19 03:28:15;;;;;;;3.70;3.40;;;;;;;;;;5075058;28;20189;-87
2021/06/19 03:30:47;;;;;;;3.60;3.30;;;;;;;;;;5074510;28;20228;-88
2021/06/19 03:33:16;;;;;;;3.90;3.60;;;;;;;;;;5074549;28;20205;-87
2021/06/19 03:35:43;;;;;;;4.03;3.67;;;;;;;;;;5074956;28;20188;-87
2021/06/19 03:38:11;;;;;;;4.32;3.95;;;;;;;;;;5074691;28;20178;-89
2021/06/19 03:40:39;;;;;;;3.63;3.33;;;;;;;;;;5074890;28;20281;-87
2021/06/19 03:43:08;;;;;;;3.47;3.20;;;;;;;;;;5074643;28;20188;-87
2021/06/19 03:45:37;;;;;;;3.50;3.20;;;;;;;;;;5074578;28;20173;-88
2021/06/19 03:48:06;;;;;;;3.45;3.15;;;;;;;;;;5074723;28;20193;-87
2021/06/19 03:50:34;;;;;;;3.25;3.05;;;;;;;;;;5074334;28;20697;-87
2021/06/19 03:53:03;;;;;;;2.85;2.65;;;;;;;;;;5074719;28;20284;-87
2021/06/19 03:55:30;;;;;;;3.10;2.80;;;;;;;;;;5074438;28;20220;-87
2021/06/19 03:58:00;;;;;;;2.60;2.42;;;;;;;;;;5074229;28;20184;-87
2021/06/19 04:00:30;;;;;;;2.83;2.63;;;;;;;;;;5074620;28;20304;-86
2021/06/19 04:02:58;;;;;;;3.30;2.58;;;;;;;;;;5074315;28;20197;-86
2021/06/19 04:05:25;;;;;;;2.08;1.98;;;;;;;;;;5074093;28;20194;-87
2021/06/19 04:07:53;;;;;;;2.90;2.70;;;;;;;;;;5074395;28;20577;-87
2021/06/19 04:10:22;;;;;;;2.33;2.22;;;;;;;;;;5073696;28;20229;-87
2021/06/19 04:12:49;;;;;;;2.58;2.47;;;;;;;;;;5073923;28;20295;-87
2021/06/19 04:15:18;;;;;;;3.10;2.80;;;;;;;;;;5074002;28;20189;-87
2021/06/19 04:17:47;;;;;;;2.80;2.60;;;;;;;;;;5073732;28;20635;-87
2021/06/19 04:20:16;;;;;;;3.15;2.85;;;;;;;;;;5074021;28;20223;-87
2021/06/19 04:22:45;;;;;;;3.15;2.90;;;;;;;;;;5074152;28;20625;-87
2021/06/19 04:25:15;;;;;;;3.53;3.22;;;;;;;;;;5073829;28;20205;-87
2021/06/19 04:27:46;;;;;;;3.40;3.15;;;;;;;;;;5074030;28;20647;-87
2021/06/19 04:30:16;;;;;;;3.75;3.45;;;;;;;;;;5073834;28;20228;-87
2021/06/19 04:32:45;;;;;;;3.38;3.05;;;;;;;;;;5073517;28;20196;-87
2021/06/19 04:35:14;;;;;;;3.97;3.45;;;;;;;;;;5073697;28;20191;-87
2021/06/19 04:37:42;;;;;;;3.42;3.22;;;;;;;;;;5073701;28;20185;-86
2021/06/19 04:40:15;;;;;;;3.50;3.20;;;;;;;;;;5073554;28;20221;-87
2021/06/19 04:42:45;;;;;;;3.35;3.15;;;;;;;;;;5073852;28;20193;-87
2021/06/19 04:45:14;;;;;;;3.53;3.30;;;;;;;;;;5073589;28;20185;-87
2021/06/19 04:47:43;;;;;;;3.40;3.10;;;;;;;;;;5073380;28;20188;-87
2021/06/19 04:50:13;;;;;;;3.05;2.85;;;;;;;;;;5073170;28;20264;-87
2021/06/19 04:52:42;;;;;;;4.18;3.88;;;;;;;;;;5073460;28;20207;-87
2021/06/19 04:55:14;;;;;;;4.00;3.70;;;;;;;;;;5073560;28;20198;-87
2021/06/19 04:57:42;;;;;;;4.40;4.10;;;;;;;;;;5073421;28;20177;-87
2021/06/19 05:00:12;;;;;;;5.82;5.43;;;;;;;;;;5073191;28;20581;-87
2021/06/19 05:02:39;;;;;;;5.50;5.10;;;;;;;;;;5073005;28;20265;-87
2021/06/19 05:05:08;;;;;;;5.63;5.22;;;;;;;;;;5072537;28;20730;-87
2021/06/19 05:07:36;;;;;;;5.28;4.88;;;;;;;;;;5072901;28;20181;-87
2021/06/19 05:10:06;;;;;;;5.30;4.78;;;;;;;;;;5072394;28;20699;-87
2021/06/19 05:12:34;;;;;;;5.18;4.78;;;;;;;;;;5073071;28;20653;-86
2021/06/19 05:15:02;;;;;;;6.03;5.63;;;;;;;;;;5072793;28;20627;-86
2021/06/19 05:17:31;;;;;;;5.72;5.22;;;;;;;;;;5072805;28;20196;-87
2021/06/19 05:19:59;;;;;;;4.70;4.40;;;;;;;;;;5072845;28;20217;-87
2021/06/19 05:22:26;;;;;;;5.82;5.32;;;;;;;;;;5072576;28;20174;-87
2021/06/19 05:24:55;;;;;;;6.47;5.88;;;;;;;;;;5072594;28;20268;-87
2021/06/19 05:27:22;;;;;;;6.10;5.50;;;;;;;;;;5072507;28;20287;-87
2021/06/19 05:29:50;;;;;;;5.97;5.47;;;;;;;;;;5072351;28;20223;-87
2021/06/19 05:32:18;;;;;;;5.63;5.22;;;;;;;;;;5072701;28;20227;-87
2021/06/19 05:34:46;;;;;;;4.97;4.68;;;;;;;;;;5072509;28;20220;-87
2021/06/19 05:37:13;;;;;;;4.95;4.55;;;;;;;;;;5072191;28;20659;-87
2021/06/19 05:39:41;;;;;;;7.32;6.72;;;;;;;;;;5072264;28;20744;-86
2021/06/19 05:42:11;;;;;;;5.97;5.50;;;;;;;;;;5072181;28;20232;-86
2021/06/19 05:44:38;;;;;;;6.55;6.05;;;;;;;;;;5071391;28;20184;-86
2021/06/19 05:47:07;;;;;;;5.80;5.30;;;;;;;;;;5072862;28;20185;-89
2021/06/19 05:49:35;;;;;;;5.47;5.07;;;;;;;;;;5072817;28;20225;-89
2021/06/19 05:52:02;;;;;;;5.85;5.45;;;;;;;;;;5072421;28;20667;-88
2021/06/19 05:54:30;;;;;;;4.70;4.30;;;;;;;;;;5072342;28;20197;-88
2021/06/19 05:56:57;;;;;;;4.57;4.28;;;;;;;;;;5072191;28;20711;-87
2021/06/19 05:59:26;;;;;;;4.22;3.83;;;;;;;;;;5072266;28;20227;-88
2021/06/19 06:01:54;;;;;;;6.00;5.50;;;;;;;;;;5072530;28;20200;-88
2021/06/19 06:04:22;;;;;;;5.40;5.00;;;;;;;;;;5072519;28;20216;-89
2021/06/19 06:06:49;;;;;;;7.65;7.05;;;;;;;;;;5072451;28;20195;-87
2021/06/19 06:09:17;;;;;;;7.82;7.13;;;;;;;;;;5072094;28;20259;-88
2021/06/19 06:11:44;;;;;;;6.35;5.93;;;;;;;;;;5071802;28;20671;-88
2021/06/19 06:14:11;;;;;;;7.53;6.93;;;;;;;;;;5072259;28;20552;-87
2021/06/19 06:16:40;;;;;;;8.40;7.63;;;;;;;;;;5071814;28;20268;-88
2021/06/19 06:19:11;;;;;;;5.57;5.18;;;;;;;;;;5072240;28;20248;-86
2021/06/19 06:21:39;;;;;;;4.18;3.90;;;;;;;;;;5071848;28;20201;-88
2021/06/19 06:24:07;;;;;;;6.00;5.53;;;;;;;;;;5071569;28;20268;-87
2021/06/19 06:26:34;;;;;;;6.18;5.78;;;;;;;;;;5071190;28;20181;-87
2021/06/19 06:29:02;;;;;;;6.32;5.25;;;;;;;;;;5070926;28;20248;-87
2021/06/19 06:31:29;;;;;;;4.95;4.65;;;;;;;;;;5071181;28;20205;-87
2021/06/19 06:33:58;;;;;;;6.13;5.72;;;;;;;;;;5071098;28;20283;-86
2021/06/19 06:36:25;;;;;;;5.22;4.93;;;;;;;;;;5071131;28;20673;-86
2021/06/19 06:38:53;;;;;;;5.85;5.45;;;;;;;;;;5070460;28;20223;-86
2021/06/19 06:41:20;;;;;;;5.78;5.38;;;;;;;;;;5071072;28;20189;-86
2021/06/19 06:43:48;;;;;;;7.30;6.63;;;;;;;;;;5071434;28;20192;-87
2021/06/19 06:46:15;;;;;;;5.22;4.82;;;;;;;;;;5071268;28;20656;-86
2021/06/19 06:48:42;;;;;;;4.47;4.18;;;;;;;;;;5072196;28;20228;-86
2021/06/19 06:51:11;;;;;;;5.00;4.53;;;;;;;;;;5071262;28;20221;-89
2021/06/19 06:53:39;;;;;;;4.72;4.32;;;;;;;;;;5071178;28;20303;-86
2021/06/19 06:56:07;;;;;;;7.70;7.00;;;;;;;;;;5072881;28;20268;-87
2021/06/19 06:58:34;;;;;;;7.40;5.70;;;;;;;;;;5075054;28;20717;-86
2021/06/19 07:01:02;;;;;;;5.88;5.38;;;;;;;;;;5074771;28;20197;-86
2021/06/19 07:03:29;;;;;;;5.15;4.68;;;;;;;;;;5075379;28;20476;-86
2021/06/19 07:05:57;;;;;;;4.55;4.25;;;;;;;;;;5076111;28;20272;-86
2021/06/19 07:08:25;;;;;;;5.10;4.60;;;;;;;;;;5075126;28;20192;-86
2021/06/19 07:10:53;;;;;;;6.55;5.93;;;;;;;;;;5076150;28;20230;-86
2021/06/19 07:13:20;;;;;;;5.97;5.30;;;;;;;;;;5075999;28;20645;-86
2021/06/19 07:15:48;;;;;;;5.07;4.72;;;;;;;;;;5074780;28;20193;-88
2021/06/19 07:18:15;;;;;;;7.47;6.85;;;;;;;;;;5076086;28;20189;-86
2021/06/19 07:20:43;;;;;;;7.68;6.93;;;;;;;;;;5077616;28;20224;-85
2021/06/19 07:23:10;;;;;;;6.68;5.88;;;;;;;;;;5077592;28;20193;-85
2021/06/19 07:25:39;;;;;;;6.72;6.22;;;;;;;;;;5076751;28;20182;-85
2021/06/19 07:28:06;;;;;;;7.03;6.43;;;;;;;;;;5077283;28;20196;-86
2021/06/19 07:30:34;;;;;;;6.05;5.55;;;;;;;;;;5077855;28;20276;-86
2021/06/19 07:33:02;;;;;;;7.15;6.45;;;;;;;;;;5079332;28;20225;-86
2021/06/19 07:35:29;;;;;;;6.13;5.35;;;;;;;;;;5079683;28;20213;-86
2021/06/19 07:37:57;;;;;;;7.15;6.50;;;;;;;;;;5078862;28;20280;-86
2021/06/19 07:40:26;;;;;;;7.50;6.78;;;;;;;;;;5076799;28;20616;-87
2021/06/19 07:42:57;;;;;;;6.30;5.75;;;;;;;;;;5077363;28;20229;-86
2021/06/19 07:45:24;;;;;;;8.73;6.00;;;;;;;;;;5078920;28;20631;-86
2021/06/19 07:47:52;;;;;;;6.78;6.28;;;;;;;;;;5078269;28;20203;-86
2021/06/19 07:50:19;;;;;;;7.05;6.38;;;;;;;;;;5079214;28;20252;-86
2021/06/19 07:52:47;;;;;;;6.38;5.97;;;;;;;;;;5079971;28;20313;-87
2021/06/19 07:55:16;;;;;;;5.97;5.47;;;;;;;;;;5077261;28;20290;-87
2021/06/19 07:57:43;;;;;;;6.63;5.32;;;;;;;;;;5073513;28;20201;-86
2021/06/19 08:00:14;;;;;;;4.63;4.18;;;;;;;;;;5074497;28;20279;-86
2021/06/19 08:02:43;;;;;;;4.13;3.83;;;;;;;;;;5074231;28;20199;-87
2021/06/19 08:05:13;;;;;;;4.88;4.35;;;;;;;;;;5073433;28;20734;-86
2021/06/19 08:07:40;;;;;;;4.78;4.47;;;;;;;;;;5072644;28;20553;-86
2021/06/19 08:10:10;;;;;;;4.50;4.20;;;;;;;;;;5073358;28;20232;-86
2021/06/19 08:12:38;;;;;;;5.43;4.70;;;;;;;;;;5073699;28;20205;-88
2021/06/19 08:15:07;;;;;;;4.57;4.28;;;;;;;;;;5073340;28;20283;-87
2021/06/19 08:17:36;;;;;;;3.90;3.70;;;;;;;;;;5074463;28;20201;-87
2021/06/19 08:20:04;;;;;;;4.13;3.83;;;;;;;;;;5074297;28;20233;-86
2021/06/19 08:22:32;;;;;;;4.00;3.75;;;;;;;;;;5076021;28;20196;-87
2021/06/19 08:24:59;;;;;;;3.70;3.28;;;;;;;;;;5075640;28;20177;-86
2021/06/19 08:27:27;;;;;;;2.83;2.72;;;;;;;;;;5075980;28;20173;-86
2021/06/19 08:29:55;;;;;;;2.83;2.63;;;;;;;;;;5075330;28;20586;-86
2021/06/19 08:32:23;;;;;;;3.00;2.80;;;;;;;;;;5075772;28;20215;-86
2021/06/19 08:34:53;;;;;;;2.70;2.50;;;;;;;;;;5074748;28;20188;-86
2021/06/19 08:37:21;;;;;;;2.83;2.63;;;;;;;;;;5074915;28;20189;-86
2021/06/19 08:39:49;;;;;;;3.13;2.88;;;;;;;;;;5074663;28;20220;-86
2021/06/19 08:42:16;;;;;;;2.97;2.70;;;;;;;;;;5074636;28;20211;-86
2021/06/19 08:44:45;;;;;;;2.53;2.38;;;;;;;;;;5074912;28;20185;-86
2021/06/19 08:47:13;;;;;;;3.70;3.45;;;;;;;;;;5075911;28;20639;-86
2021/06/19 08:49:41;;;;;;;3.33;3.13;;;;;;;;;;5075519;28;20718;-86
2021/06/19 08:52:10;;;;;;;3.63;2.95;;;;;;;;;;5077012;28;20221;-86
2021/06/19 08:54:41;;;;;;;3.38;3.17;;;;;;;;;;5082345;28;20284;-87
2021/06/19 08:57:10;;;;;;;4.25;3.88;;;;;;;;;;5081914;28;20655;-87
2021/06/19 08:59:37;;;;;;;2.90;2.70;;;;;;;;;;5083402;28;20309;-87
2021/06/19 09:02:06;;;;;;;3.45;3.25;;;;;;;;;;5081555;28;20204;-85
2021/06/19 09:04:55;;;;;;;2.67;2.47;;;;;;;;;;5083225;28;20211;-85
2021/06/19 09:07:44;;;;;;;3.20;2.90;;;;;;;;;;5083674;28;20189;-85
2021/06/19 09:10:32;;;;;;;2.97;2.78;;;;;;;;;;5080904;28;20251;-86
2021/06/19 09:13:09;;;;;;;3.13;2.92;;;;;;;;;;5079314;28;20596;-86
2021/06/19 09:15:42;;;;;;;4.13;3.83;;;;;;;;;;5077160;28;20296;-87
2021/06/19 09:18:19;;;;;;;3.45;3.25;;;;;;;;;;5078451;28;20208;-86
2021/06/19 09:20:52;;;;;;;3.05;2.85;;;;;;;;;;5078073;28;20199;-87
2021/06/19 09:23:30;;;;;;;3.13;2.92;;;;;;;;;;5073579;28;20238;-85
2021/06/19 09:26:11;;;;;;;3.45;3.22;;;;;;;;;;5071171;28;20191;-86
2021/06/19 09:29:03;;;;;;;3.67;3.47;;;;;;;;;;5070887;28;20701;-86
2021/06/19 09:31:36;;;;;;;3.38;3.13;;;;;;;;;;5071149;28;20215;-86
2021/06/19 09:34:09;;;;;;;2.80;2.40;;;;;;;;;;5071373;28;20221;-86
2021/06/19 09:36:51;;;;;;;2.67;2.53;;;;;;;;;;5071123;28;20177;-86
2021/06/19 09:39:22;;;;;;;3.10;2.90;;;;;;;;;;5071041;28;20265;-86
2021/06/19 09:41:52;;;;;;;3.28;3.08;;;;;;;;;;5070731;28;20199;-86
2021/06/19 09:44:34;;;;;;;3.65;3.45;;;;;;;;;;5070789;28;20184;-86
2021/06/19 09:47:02;;;;;;;3.13;2.92;;;;;;;;;;5071364;28;20188;-86
2021/06/19 09:49:34;;;;;;;2.90;2.70;;;;;;;;;;5071146;28;20729;-85
2021/06/19 09:52:03;;;;;;;3.00;2.80;;;;;;;;;;5070722;28;20200;-85
2021/06/19 09:54:39;;;;;;;2.92;2.72;;;;;;;;;;5070777;28;20721;-85
2021/06/19 09:57:09;;;;;;;2.30;2.20;;;;;;;;;;5070565;28;20623;-86
2021/06/19 09:59:38;;;;;;;2.13;2.03;;;;;;;;;;5070451;28;20230;-85
2021/06/19 10:02:19;;;;;;;2.30;2.20;;;;;;;;;;5070193;28;20581;-86
2021/06/19 10:04:52;;;;;;;2.55;2.35;;;;;;;;;;5070357;28;20208;-86
2021/06/19 10:07:20;;;;;;;2.58;2.38;;;;;;;;;;5070689;28;20201;-86
2021/06/19 10:09:49;;;;;;;2.55;2.35;;;;;;;;;;5070355;28;20240;-86
2021/06/19 10:12:20;;;;;;;2.35;2.25;;;;;;;;;;5072492;28;20200;-86
2021/06/19 10:14:47;;;;;;;2.47;2.38;;;;;;;;;;5071993;28;20205;-86
2021/06/19 10:17:17;;;;;;;1.90;1.80;;;;;;;;;;5072276;28;20227;-86
2021/06/19 10:19:45;;;;;;;2.00;1.90;;;;;;;;;;5071673;28;20714;-86
2021/06/19 10:22:13;;;;;;;2.00;1.90;;;;;;;;;;5071106;28;20793;-86
2021/06/19 10:24:42;;;;;;;2.10;2.00;;;;;;;;;;5071865;28;20192;-86
2021/06/19 10:27:11;;;;;;;2.22;2.13;;;;;;;;;;5071591;28;20639;-87
2021/06/19 10:29:38;;;;;;;2.63;2.50;;;;;;;;;;5071521;28;20220;-86
2021/06/19 10:32:07;;;;;;;2.22;2.13;;;;;;;;;;5075633;28;20207;-86
2021/06/19 10:34:37;;;;;;;3.22;2.92;;;;;;;;;;5075125;28;20201;-86
2021/06/19 10:37:08;;;;;;;2.38;2.28;;;;;;;;;;5075583;28;20242;-86
2021/06/19 10:39:42;;;;;;;2.42;2.33;;;;;;;;;;5075297;28;20216;-86
2021/06/19 10:42:29;;;;;;;2.60;2.50;;;;;;;;;;5075226;28;20206;-86
2021/06/19 10:45:00;;;;;;;2.00;1.90;;;;;;;;;;5074904;28;20569;-86
2021/06/19 10:47:30;;;;;;;1.83;1.73;;;;;;;;;;5074280;28;20200;-86
2021/06/19 10:49:58;;;;;;;2.00;1.90;;;;;;;;;;5075056;28;20226;-86
2021/06/19 10:52:35;;;;;;;1.55;1.45;;;;;;;;;;5074979;28;20231;-86
2021/06/19 10:55:28;;;;;;;1.42;1.33;;;;;;;;;;5074921;28;20307;-86
2021/06/19 10:58:04;;;;;;;1.35;1.25;;;;;;;;;;5075229;28;20192;-86
2021/06/19 11:00:44;;;;;;;1.30;1.30;;;;;;;;;;5074808;28;20188;-86
2021/06/19 11:03:12;;;;;;;1.33;1.33;;;;;;;;;;5074148;28;20272;-86
2021/06/19 11:05:59;;;;;;;0.93;0.93;;;;;;;;;;5074226;28;20202;-86
2021/06/19 11:08:28;;;;;;;0.98;0.98;;;;;;;;;;5073881;28;20315;-86
2021/06/19 11:11:00;;;;;;;1.00;1.00;;;;;;;;;;5074823;28;20184;-86
2021/06/19 11:13:48;;;;;;;0.70;0.70;;;;;;;;;;5074718;28;20231;-86
2021/06/19 11:16:48;;;;;;;0.90;0.90;;;;;;;;;;5074311;28;20690;-86
2021/06/19 11:19:42;;;;;;;1.00;1.00;;;;;;;;;;5074525;28;20227;-86
2021/06/19 11:22:32;;;;;;;1.08;1.05;;;;;;;;;;5073518;28;20666;-86
2021/06/19 11:25:19;;;;;;;1.10;1.10;;;;;;;;;;5073318;28;20200;-86
2021/06/19 11:28:00;;;;;;;0.98;0.98;;;;;;;;;;5073780;28;20212;-86
2021/06/19 11:30:50;;;;;;;0.98;0.98;;;;;;;;;;5073461;28;20768;-86
2021/06/19 11:33:52;;;;;;;0.90;0.90;;;;;;;;;;5073927;28;20224;-86
2021/06/19 11:36:39;;;;;;;1.58;1.48;;;;;;;;;;5073907;28;20208;-86
2021/06/19 11:39:13;;;;;;;1.45;1.40;;;;;;;;;;5073359;28;20702;-86
2021/06/19 11:41:44;;;;;;;1.38;1.30;;;;;;;;;;5073446;28;20188;-86
2021/06/19 11:44:33;;;;;;;1.42;1.40;;;;;;;;;;5073113;28;20201;-86
2021/06/19 11:47:07;;;;;;;1.20;1.20;;;;;;;;;;5072682;28;20203;-85
2021/06/19 11:49:41;;;;;;;1.85;1.30;;;;;;;;;;5073178;28;20220;-86
2021/06/19 11:52:11;;;;;;;1.40;1.40;;;;;;;;;;5072780;28;20181;-86
2021/06/19 11:54:44;;;;;;;1.30;1.30;;;;;;;;;;5072908;28;20224;-86
2021/06/19 11:57:22;;;;;;;1.13;1.13;;;;;;;;;;5072710;28;20181;-86
2021/06/19 12:00:14;;;;;;;2.38;2.28;;;;;;;;;;5073088;28;20266;-88
2021/06/19 12:02:43;;;;;;;1.75;1.65;;;;;;;;;;5073530;28;20666;-87
2021/06/19 12:05:16;;;;;;;1.70;1.60;;;;;;;;;;5073220;28;20570;-87
2021/06/19 12:07:45;;;;;;;1.60;1.50;;;;;;;;;;5074267;28;20651;-87
2021/06/19 12:10:28;;;;;;;1.40;1.40;;;;;;;;;;5073409;28;20240;-86
2021/06/19 12:13:05;;;;;;;1.65;1.40;;;;;;;;;;5073913;28;20181;-87
2021/06/19 12:15:34;;;;;;;1.10;1.10;;;;;;;;;;5073471;28;20691;-86
2021/06/19 12:18:04;;;;;;;1.58;1.48;;;;;;;;;;5073520;28;20205;-87
2021/06/19 12:20:32;;;;;;;1.30;1.30;;;;;;;;;;5073537;28;20550;-88
2021/06/19 12:22:59;;;;;;;1.73;1.63;;;;;;;;;;5072720;28;20665;-87
2021/06/19 12:25:30;;;;;;;2.00;1.90;;;;;;;;;;5073317;28;20191;-87
2021/06/19 12:27:58;;;;;;;1.63;1.52;;;;;;;;;;5072867;28;20557;-87
2021/06/19 12:30:26;;;;;;;1.38;1.30;;;;;;;;;;5072960;28;20296;-87
2021/06/19 12:32:54;;;;;;;1.27;1.17;;;;;;;;;;5072655;28;20210;-87
2021/06/19 12:35:24;;;;;;;2.58;1.50;;;;;;;;;;5072558;28;20227;-87
2021/06/19 12:37:54;;;;;;;1.10;1.10;;;;;;;;;;5072608;28;20189;-88
2021/06/19 12:40:26;;;;;;;1.20;1.20;;;;;;;;;;5072844;28;20678;-86
2021/06/19 12:43:07;;;;;;;1.25;1.17;;;;;;;;;;5072020;28;20630;-87
2021/06/19 12:45:37;;;;;;;1.08;1.08;;;;;;;;;;5071813;28;20200;-87
2021/06/19 12:48:08;;;;;;;0.90;0.90;;;;;;;;;;5073230;28;20208;-88
2021/06/19 12:50:40;;;;;;;1.92;1.83;;;;;;;;;;5073071;28;20208;-88
2021/06/19 12:53:10;;;;;;;1.33;1.33;;;;;;;;;;5072043;28;20207;-87
2021/06/19 12:55:40;;;;;;;1.10;1.10;;;;;;;;;;5072526;28;20216;-88
2021/06/19 12:58:14;;;;;;;1.55;1.45;;;;;;;;;;5073092;28;20189;-87
2021/06/19 13:00:48;;;;;;;2.00;1.90;;;;;;;;;;5055461;28;20192;-88
2021/06/19 13:03:20;;;;;;;3.75;2.17;;;;;;;;;;5072761;28;20193;-88
2021/06/19 13:05:52;;;;;;;1.67;1.58;;;;;;;;;;5073372;28;20238;-88
2021/06/19 13:08:20;;;;;;;1.88;1.77;;;;;;;;;;5072918;28;20192;-88
2021/06/19 13:10:48;;;;;;;1.48;1.40;;;;;;;;;;5072822;28;20184;-88
2021/06/19 13:13:16;;;;;;;2.03;1.92;;;;;;;;;;5072524;28;20685;-88
2021/06/19 13:15:59;;;;;;;1.30;1.30;;;;;;;;;;5072866;28;20785;-88
2021/06/19 13:18:27;;;;;;;1.08;1.08;;;;;;;;;;5072700;28;20338;-89
2021/06/19 13:21:06;;;;;;;1.35;1.35;;;;;;;;;;5073093;28;20230;-89
2021/06/19 13:23:34;;;;;;;2.35;2.15;;;;;;;;;;5073212;28;20189;-87
2021/06/19 13:26:06;;;;;;;2.35;2.13;;;;;;;;;;5072669;28;20181;-88
2021/06/19 13:28:46;;;;;;;2.28;2.10;;;;;;;;;;5072925;28;20216;-88
2021/06/19 13:31:16;;;;;;;1.80;1.70;;;;;;;;;;5073143;28;20185;-89
2021/06/19 13:33:47;;;;;;;1.88;1.77;;;;;;;;;;5072755;28;20183;-88
2021/06/19 13:36:22;;;;;;;1.77;1.67;;;;;;;;;;5072812;28;20216;-88
2021/06/19 13:38:59;;;;;;;1.70;1.60;;;;;;;;;;5072447;28;20212;-88
2021/06/19 13:41:33;;;;;;;1.63;1.52;;;;;;;;;;5072651;28;20192;-88
2021/06/19 13:44:01;;;;;;;1.35;1.35;;;;;;;;;;5072444;28;20238;-88
2021/06/19 13:46:30;;;;;;;1.20;1.20;;;;;;;;;;5072925;28;20548;-89
2021/06/19 13:48:59;;;;;;;1.25;1.25;;;;;;;;;;5072371;28;20258;-89
2021/06/19 13:51:29;;;;;;;2.20;2.10;;;;;;;;;;5072724;28;20200;-89
2021/06/19 13:53:57;;;;;;;1.98;1.80;;;;;;;;;;5072367;28;20272;-88
2021/06/19 13:56:25;;;;;;;1.70;1.60;;;;;;;;;;5072236;28;20577;-88
2021/06/19 13:58:53;;;;;;;1.48;1.42;;;;;;;;;;5072335;28;20242;-88
2021/06/19 14:01:21;;;;;;;1.92;1.83;;;;;;;;;;5072566;28;20189;-88
2021/06/19 14:03:49;;;;;;;1.63;1.52;;;;;;;;;;5072664;28;20576;-89
2021/06/19 14:06:17;;;;;;;1.60;1.50;;;;;;;;;;5072217;28;20177;-89
2021/06/19 14:08:48;;;;;;;1.65;1.55;;;;;;;;;;5072177;28;20235;-88
2021/06/19 14:11:17;;;;;;;1.50;1.40;;;;;;;;;;5072174;28;20216;-89
2021/06/19 14:13:46;;;;;;;1.20;1.20;;;;;;;;;;5072543;28;20216;-88
2021/06/19 14:16:13;;;;;;;1.45;1.35;;;;;;;;;;5072342;28;20689;-89
2021/06/19 14:18:41;;;;;;;1.58;1.48;;;;;;;;;;5072437;28;20224;-89
2021/06/19 14:21:09;;;;;;;1.48;1.38;;;;;;;;;;5072399;28;20188;-89
2021/06/19 14:23:39;;;;;;;1.33;1.33;;;;;;;;;;5072614;28;20647;-88
2021/06/19 14:26:11;;;;;;;1.30;1.30;;;;;;;;;;5072339;28;20203;-89
2021/06/19 14:28:40;;;;;;;1.77;1.67;;;;;;;;;;5072552;28;20584;-89
2021/06/19 14:31:08;;;;;;;1.50;1.40;;;;;;;;;;5072582;28;20188;-89
2021/06/19 14:33:35;;;;;;;1.67;1.20;;;;;;;;;;5072298;28;20177;-89
2021/06/19 14:36:04;;;;;;;0.90;0.90;;;;;;;;;;5072442;28;20205;-89
2021/06/19 14:38:31;;;;;;;1.63;1.52;;;;;;;;;;5071926;28;20212;-90
2021/06/19 14:41:00;;;;;;;1.42;1.15;;;;;;;;;;5072480;28;20173;-90
2021/06/19 14:43:29;;;;;;;1.23;1.02;;;;;;;;;;5072350;28;20177;-89
2021/06/19 14:45:57;;;;;;;1.55;1.45;;;;;;;;;;5072306;28;20193;-90
2021/06/19 14:48:24;;;;;;;0.98;0.98;;;;;;;;;;5072419;28;20196;-89
2021/06/19 14:50:52;;;;;;;0.88;0.88;;;;;;;;;;5072174;28;20662;-89
2021/06/19 14:53:19;;;;;;;1.23;1.13;;;;;;;;;;5071917;28;20197;-89
2021/06/19 14:55:48;;;;;;;1.10;1.10;;;;;;;;;;5072455;28;20304;-90
2021/06/19 14:58:15;;;;;;;1.00;1.00;;;;;;;;;;5072022;28;20745;-88
2021/06/19 15:00:45;;;;;;;1.45;1.00;;;;;;;;;;5074070;28;20247;-88
2021/06/19 15:03:14;;;;;;;1.17;1.10;;;;;;;;;;5080664;28;20184;-88